Dodgeville, Michigan
Current Conditions -  °F | °C
As of 2:53 PM on Wednesday 17 Dec 2014 (Local Time) from KCMX Reporting Station
Light Snow Light Snow  
Wind Chill: 12°   Ceiling: 1100
Heat Index: 23°   Visibility: 9mi
Dew Point: 18°   Wind: 12mph
Humidity: 81%   Direction: 360°N
Pressure: 30.14"   Gusts: 22mph
Location:  47.09°N, 88.58°W
Report Text: KCMX 171953Z AUTO 36010G19KT 9SM -SN OVC011 M05/M08 A3014 RMK AO2 SLP225 P0000 T10501078
Loading
Personal Weather Stations






























Interactive Weather Map New forecast layout! Learn more

10-Day Weather Forecast

Advertisements
Track Severe Weather on mobile